Time;durP1;ratioP1;P1;durP2;ratioP2;P2;SDS_P1;SDS_P2;PMS_P1;PMS_P2;Temp;Humidity;BMP_temperature;BMP_pressure;BME280_temperature;BME280_humidity;BME280_pressure;Samples;Min_cycle;Max_cycle;Signal;HPM_P1;HPM_P2
2022/01/19 00:01:07;;;;;;;31.10;10.95;;;;;;;;;;6125731;23;20046;-71
2022/01/19 00:03:36;;;;;;;26.13;10.82;;;;;;;;;;6220715;22;20332;-75
2022/01/19 00:06:04;;;;;;;33.88;11.50;;;;;;;;;;6244978;22;20000;-71
2022/01/19 00:11:41;;;;;;;29.23;10.25;;;;;;;;;;6246062;22;20023;-71
2022/01/19 00:14:08;;;;;;;30.38;11.60;;;;;;;;;;6184617;23;19994;-72
2022/01/19 00:17:14;;;;;;;33.58;11.27;;;;;;;;;;6125552;23;20022;-71
2022/01/19 00:19:59;;;;;;;26.55;11.05;;;;;;;;;;6010382;23;19992;-72
2022/01/19 00:22:47;;;;;;;33.60;15.02;;;;;;;;;;6011189;23;19996;-71
2022/01/19 00:25:16;;;;;;;30.35;11.45;;;;;;;;;;6011075;23;20016;-70
2022/01/19 00:27:42;;;;;;;42.28;16.45;;;;;;;;;;6011412;23;19996;-71
2022/01/19 00:30:08;;;;;;;37.92;16.02;;;;;;;;;;5987758;23;20020;-70
2022/01/19 00:32:34;;;;;;;42.60;20.27;;;;;;;;;;6011049;23;20014;-70
2022/01/19 00:35:01;;;;;;;29.33;12.95;;;;;;;;;;6011118;23;20074;-72
2022/01/19 00:37:27;;;;;;;30.75;12.15;;;;;;;;;;6011257;23;20048;-71
2022/01/19 00:40:15;;;;;;;34.90;13.25;;;;;;;;;;6011270;23;20067;-72
2022/01/19 00:43:07;;;;;;;31.15;13.07;;;;;;;;;;6010566;23;19992;-71
2022/01/19 00:48:41;;;;;;;32.72;10.60;;;;;;;;;;6110693;23;20004;-72
2022/01/19 00:51:19;;;;;;;39.22;15.50;;;;;;;;;;6125351;23;20006;-71
2022/01/19 00:53:55;;;;;;;30.52;12.50;;;;;;;;;;6125091;23;20058;-71
2022/01/19 00:56:21;;;;;;;32.70;13.38;;;;;;;;;;6210729;22;19993;-71
2022/01/19 00:58:47;;;;;;;25.38;10.43;;;;;;;;;;6244944;22;20053;-71
2022/01/19 01:01:22;;;;;;;31.98;11.15;;;;;;;;;;6245763;22;19989;-71
2022/01/19 01:04:03;;;;;;;35.13;13.35;;;;;;;;;;6279717;22;20004;-72
2022/01/19 01:06:30;;;;;;;31.67;13.55;;;;;;;;;;6280500;22;19995;-71
2022/01/19 01:08:56;;;;;;;33.97;13.32;;;;;;;;;;6306844;22;20030;-71
2022/01/19 01:11:32;;;;;;;27.05;11.00;;;;;;;;;;6306101;22;20075;-71
2022/01/19 01:16:59;;;;;;;34.17;14.18;;;;;;;;;;6315728;22;20039;-71
2022/01/19 01:19:26;;;;;;;29.90;14.38;;;;;;;;;;6304322;22;20177;-71
2022/01/19 01:21:55;;;;;;;35.63;14.85;;;;;;;;;;6305864;22;19996;-71
2022/01/19 01:24:21;;;;;;;31.67;12.85;;;;;;;;;;6306432;22;19999;-72
2022/01/19 01:29:23;;;;;;;30.30;11.88;;;;;;;;;;6235755;22;20008;-73
2022/01/19 01:31:49;;;;;;;34.92;14.38;;;;;;;;;;6275003;22;20008;-71
2022/01/19 01:34:15;;;;;;;38.50;15.07;;;;;;;;;;6275641;22;19988;-73
2022/01/19 01:36:41;;;;;;;39.10;14.73;;;;;;;;;;6273957;22;19992;-70
2022/01/19 01:39:07;;;;;;;50.22;19.40;;;;;;;;;;6274581;22;20008;-70
2022/01/19 01:41:33;;;;;;;32.13;15.27;;;;;;;;;;6273851;22;19988;-75
2022/01/19 01:43:59;;;;;;;49.60;19.98;;;;;;;;;;6275693;22;19985;-70
2022/01/19 01:47:08;;;;;;;45.35;17.63;;;;;;;;;;6275201;22;20004;-71
2022/01/19 01:49:28;;;;;;;35.28;14.57;;;;;;;;;;6266642;22;20016;-70
2022/01/19 01:54:42;;;;;;;32.25;13.52;;;;;;;;;;6275578;22;20002;-72
2022/01/19 01:57:11;;;;;;;36.83;12.85;;;;;;;;;;6275523;22;19985;-73
2022/01/19 01:59:37;;;;;;;25.60;9.93;;;;;;;;;;6274025;22;20011;-72
2022/01/19 02:02:03;;;;;;;27.73;10.73;;;;;;;;;;6286005;22;19987;-71
2022/01/19 02:04:31;;;;;;;32.05;12.13;;;;;;;;;;6304336;22;20043;-71
2022/01/19 02:09:26;;;;;;;38.65;14.38;;;;;;;;;;6316293;22;20750;-76
2022/01/19 02:22:58;;;;;;;33.85;12.68;;;;;;;;;;6302066;22;20002;-83
2022/01/19 02:25:28;;;;;;;38.83;15.45;;;;;;;;;;6304949;22;20063;-71
2022/01/19 02:41:40;;;;;;;28.65;14.00;;;;;;;;;;6304790;22;20003;-76
2022/01/19 02:44:16;;;;;;;34.88;13.30;;;;;;;;;;6302827;22;20014;-73
2022/01/19 02:49:33;;;;;;;41.25;15.95;;;;;;;;;;6304485;22;20022;-83
2022/01/19 02:52:00;;;;;;;36.72;14.95;;;;;;;;;;6298275;22;20044;-89
2022/01/19 02:54:28;;;;;;;33.30;13.05;;;;;;;;;;6285716;22;20026;-78
2022/01/19 02:57:12;;;;;;;36.45;13.93;;;;;;;;;;6274676;22;20004;-79
2022/01/19 03:08:50;;;;;;;40.50;17.15;;;;;;;;;;6273107;23;19992;-79
2022/01/19 03:11:17;;;;;;;47.67;18.05;;;;;;;;;;6270100;22;19988;-77
2022/01/19 03:13:44;;;;;;;41.13;17.25;;;;;;;;;;6273000;23;20064;-83
2022/01/19 03:16:10;;;;;;;49.63;18.73;;;;;;;;;;6245275;23;20004;-85
2022/01/19 03:18:37;;;;;;;42.78;15.70;;;;;;;;;;6273114;23;20055;-71
2022/01/19 03:21:03;;;;;;;42.78;17.77;;;;;;;;;;6273916;23;20004;-82
2022/01/19 03:23:30;;;;;;;40.22;16.83;;;;;;;;;;6272738;23;19991;-81
2022/01/19 03:26:20;;;;;;;51.88;19.50;;;;;;;;;;6274136;22;20007;-82
2022/01/19 03:28:46;;;;;;;40.65;18.73;;;;;;;;;;6271398;23;20020;-82
2022/01/19 03:31:13;;;;;;;53.67;21.08;;;;;;;;;;6244994;23;20011;-83
2022/01/19 03:33:39;;;;;;;44.60;19.70;;;;;;;;;;6245868;23;20008;-84
2022/01/19 03:36:25;;;;;;;49.08;17.70;;;;;;;;;;6270721;23;19995;-77
2022/01/19 03:38:51;;;;;;;40.30;18.83;;;;;;;;;;6271287;23;20004;-81
2022/01/19 03:41:17;;;;;;;55.03;20.48;;;;;;;;;;6268743;23;20507;-72
2022/01/19 03:43:43;;;;;;;46.40;19.40;;;;;;;;;;6292127;22;20031;-71
2022/01/19 03:46:14;;;;;;;43.80;17.48;;;;;;;;;;6309276;22;19995;-75
2022/01/19 03:49:08;;;;;;;42.38;16.13;;;;;;;;;;6336851;22;20039;-71
2022/01/19 03:51:34;;;;;;;36.67;14.27;;;;;;;;;;6218711;22;20033;-72
2022/01/19 03:54:00;;;;;;;31.65;13.35;;;;;;;;;;6303944;22;19991;-72
2022/01/19 03:56:26;;;;;;;37.72;13.30;;;;;;;;;;6279206;22;19995;-75
2022/01/19 03:58:52;;;;;;;30.92;12.82;;;;;;;;;;6279766;22;20067;-72
2022/01/19 04:01:19;;;;;;;27.95;11.98;;;;;;;;;;6297643;22;19995;-73
2022/01/19 04:06:23;;;;;;;33.75;13.68;;;;;;;;;;6284241;22;20000;-72
2022/01/19 04:09:01;;;;;;;39.60;14.85;;;;;;;;;;6272232;22;20008;-74
2022/01/19 04:11:27;;;;;;;38.17;16.17;;;;;;;;;;6274766;22;20023;-78
2022/01/19 04:14:21;;;;;;;39.10;17.25;;;;;;;;;;6274036;23;19984;-75
2022/01/19 04:16:44;;;;;;;40.15;14.82;;;;;;;;;;6273321;23;20000;-81
2022/01/19 04:19:32;;;;;;;37.25;15.27;;;;;;;;;;6270319;23;19988;-84
2022/01/19 04:22:01;;;;;;;44.75;15.20;;;;;;;;;;6273449;22;19999;-85
2022/01/19 04:25:07;;;;;;;33.42;13.50;;;;;;;;;;6210178;23;20045;-73
2022/01/19 04:27:34;;;;;;;36.78;13.05;;;;;;;;;;6209185;23;19989;-74
2022/01/19 04:30:08;;;;;;;37.10;16.30;;;;;;;;;;6212072;23;19989;-72
2022/01/19 04:32:49;;;;;;;40.95;17.77;;;;;;;;;;6212510;23;20084;-71
2022/01/19 04:35:19;;;;;;;47.80;18.88;;;;;;;;;;6212025;23;20006;-72
2022/01/19 05:04:46;;;;;;;32.55;15.13;;;;;;;;;;6158067;23;20013;-79
2022/01/19 05:15:37;;;;;;;36.30;13.32;;;;;;;;;;6152382;23;20021;-76
2022/01/19 05:18:04;;;;;;;34.33;13.98;;;;;;;;;;6152933;23;20014;-93
2022/01/19 05:20:31;;;;;;;42.40;18.67;;;;;;;;;;6152183;23;19998;-80
2022/01/19 05:22:57;;;;;;;48.67;19.58;;;;;;;;;;6152250;23;19990;-85
2022/01/19 05:25:23;;;;;;;47.65;19.08;;;;;;;;;;6151534;23;19997;-82
2022/01/19 05:27:49;;;;;;;36.92;16.15;;;;;;;;;;6149586;23;20086;-76
2022/01/19 05:33:21;;;;;;;33.50;15.35;;;;;;;;;;6151062;23;20029;-74
2022/01/19 05:35:47;;;;;;;38.28;16.35;;;;;;;;;;6149791;23;20002;-72
2022/01/19 05:38:13;;;;;;;45.28;16.85;;;;;;;;;;6247649;23;20058;-78
2022/01/19 05:40:59;;;;;;;43.25;18.52;;;;;;;;;;6272364;22;20035;-87
2022/01/19 05:43:54;;;;;;;57.08;27.60;;;;;;;;;;6270256;23;20000;-90
2022/01/19 05:46:40;;;;;;;;;;;;;;;;;;6271380;23;19999;-80
2022/01/19 05:49:06;;;;;;;62.55;31.33;;;;;;;;;;6268870;23;19943;-91
2022/01/19 05:51:35;;;;;;;54.45;24.42;;;;;;;;;;6266413;23;20068;-86
2022/01/19 05:54:03;;;;;;;47.03;21.50;;;;;;;;;;6262634;23;19998;-92
2022/01/19 05:56:31;;;;;;;39.63;16.55;;;;;;;;;;6263485;23;20052;-78
2022/01/19 05:58:58;;;;;;;42.88;15.85;;;;;;;;;;6267805;22;19991;-71
2022/01/19 06:01:30;;;;;;;43.03;16.30;;;;;;;;;;6251696;22;20028;-81
2022/01/19 06:03:57;;;;;;;54.20;19.38;;;;;;;;;;6264772;23;20008;-90
2022/01/19 06:06:31;;;;;;;56.50;19.92;;;;;;;;;;6238767;23;20414;-84
2022/01/19 06:09:32;;;;;;;58.65;20.05;;;;;;;;;;6238436;23;20007;-78
2022/01/19 06:12:03;;;;;;;55.75;19.00;;;;;;;;;;6271176;23;20012;-85
2022/01/19 06:15:08;;;;;;;70.30;23.40;;;;;;;;;;6270743;23;20008;-88
2022/01/19 06:17:34;;;;;;;62.45;21.13;;;;;;;;;;6273755;22;20007;-89
2022/01/19 06:23:07;;;;;;;73.30;29.08;;;;;;;;;;6271156;23;20004;-87
2022/01/19 06:25:34;;;;;;;71.80;24.65;;;;;;;;;;6209861;23;20001;-74
2022/01/19 06:28:00;;;;;;;55.33;22.98;;;;;;;;;;6205164;23;20005;-72
2022/01/19 06:30:26;;;;;;;54.90;21.48;;;;;;;;;;6202233;23;19985;-80
2022/01/19 06:32:53;;;;;;;71.22;28.15;;;;;;;;;;6209265;23;20025;-77
2022/01/19 06:35:19;;;;;;;92.32;31.85;;;;;;;;;;6205074;23;20005;-83
2022/01/19 06:37:45;;;;;;;87.38;31.95;;;;;;;;;;6208287;23;20363;-85
2022/01/19 06:40:13;;;;;;;79.90;31.33;;;;;;;;;;6210631;23;19997;-89
2022/01/19 06:42:39;;;;;;;88.47;29.92;;;;;;;;;;6186227;23;20056;-83
2022/01/19 06:45:06;;;;;;;66.78;25.88;;;;;;;;;;6208970;23;19985;-71
2022/01/19 06:47:33;;;;;;;60.08;22.83;;;;;;;;;;6209355;23;20020;-71
2022/01/19 06:50:25;;;;;;;47.40;19.13;;;;;;;;;;6185885;23;19997;-71
2022/01/19 06:53:09;;;;;;;40.58;16.80;;;;;;;;;;6208972;23;20033;-72
2022/01/19 06:55:42;;;;;;;47.08;21.52;;;;;;;;;;6221289;22;20012;-74
2022/01/19 06:58:38;;;;;;;63.38;35.88;;;;;;;;;;6210484;23;20049;-70
2022/01/19 07:01:04;;;;;;;50.30;26.60;;;;;;;;;;6165763;23;20099;-71
2022/01/19 07:03:32;;;;;;;61.20;27.65;;;;;;;;;;6162567;23;20039;-72
2022/01/19 07:06:02;;;;;;;57.80;25.45;;;;;;;;;;6188174;23;20009;-71
2022/01/19 07:08:29;;;;;;;58.88;26.63;;;;;;;;;;6163575;23;20002;-71
2022/01/19 07:10:56;;;;;;;46.65;24.17;;;;;;;;;;6188014;23;20048;-71
2022/01/19 07:13:22;;;;;;;72.30;35.30;;;;;;;;;;6166675;23;20009;-72
2022/01/19 07:15:56;;;;;;;56.20;24.48;;;;;;;;;;6190556;23;20498;-74
2022/01/19 07:18:23;;;;;;;89.35;43.45;;;;;;;;;;6161948;23;20012;-70
2022/01/19 07:20:56;;;;;;;105.78;49.13;;;;;;;;;;6162799;23;20068;-71
2022/01/19 07:23:23;;;;;;;;;;;;;;;;;;6162274;23;20017;-70
2022/01/19 07:25:50;;;;;;;93.13;41.13;;;;;;;;;;6190321;23;19982;-71
2022/01/19 07:28:22;;;;;;;108.55;49.13;;;;;;;;;;6168257;23;20026;-71
2022/01/19 07:30:51;;;;;;;114.38;52.45;;;;;;;;;;6255079;23;20004;-70
2022/01/19 07:33:21;;;;;;;96.40;44.08;;;;;;;;;;6254018;23;20031;-71
2022/01/19 07:35:51;;;;;;;63.60;25.85;;;;;;;;;;6227214;23;20008;-70
2022/01/19 07:38:30;;;;;;;53.53;20.20;;;;;;;;;;6251653;23;20000;-74
2022/01/19 07:41:11;;;;;;;51.78;18.65;;;;;;;;;;6177844;23;20058;-70
2022/01/19 07:43:50;;;;;;;45.28;21.20;;;;;;;;;;6248593;23;20023;-70
2022/01/19 07:46:38;;;;;;;50.67;21.50;;;;;;;;;;6256706;23;20003;-71
2022/01/19 07:49:05;;;;;;;57.83;22.90;;;;;;;;;;6260571;23;20004;-71
2022/01/19 07:51:35;;;;;;;53.90;26.77;;;;;;;;;;6233377;23;20008;-72
2022/01/19 07:54:06;;;;;;;62.97;25.85;;;;;;;;;;6229157;23;20334;-71
2022/01/19 07:56:37;;;;;;;49.15;22.42;;;;;;;;;;6257512;23;19984;-71
2022/01/19 07:59:06;;;;;;;74.72;29.90;;;;;;;;;;6258853;23;20012;-70
2022/01/19 08:01:37;;;;;;;77.55;29.55;;;;;;;;;;6256043;22;20004;-71
2022/01/19 08:04:12;;;;;;;63.05;30.08;;;;;;;;;;6210677;23;20012;-70
2022/01/19 08:06:54;;;;;;;46.15;21.27;;;;;;;;;;6249290;23;20008;-72
2022/01/19 08:09:27;;;;;;;35.38;17.23;;;;;;;;;;6253813;23;20000;-72
2022/01/19 08:12:04;;;;;;;34.23;14.87;;;;;;;;;;6258264;23;20008;-72
2022/01/19 08:14:35;;;;;;;31.25;13.55;;;;;;;;;;6205441;23;20370;-74
2022/01/19 08:17:04;;;;;;;34.60;15.98;;;;;;;;;;6153961;23;20062;-73
2022/01/19 08:19:31;;;;;;;39.30;18.83;;;;;;;;;;6228795;23;20023;-72
2022/01/19 08:21:58;;;;;;;43.15;20.08;;;;;;;;;;6255084;23;20358;-73
2022/01/19 08:24:28;;;;;;;38.50;18.17;;;;;;;;;;6256182;23;20460;-73
2022/01/19 08:27:15;;;;;;;35.65;16.13;;;;;;;;;;6254940;23;20441;-73
2022/01/19 08:29:44;;;;;;;30.98;15.13;;;;;;;;;;6227094;23;20008;-73
2022/01/19 08:32:11;;;;;;;47.70;20.38;;;;;;;;;;6227434;23;20442;-76
2022/01/19 08:34:37;;;;;;;30.73;13.88;;;;;;;;;;6225121;23;20003;-75
2022/01/19 08:37:03;;;;;;;39.08;16.42;;;;;;;;;;6249271;23;20004;-74
2022/01/19 08:39:30;;;;;;;28.88;11.00;;;;;;;;;;6198034;23;20015;-74
2022/01/19 08:42:22;;;;;;;29.92;11.85;;;;;;;;;;6260547;22;20032;-81
2022/01/19 08:44:52;;;;;;;33.22;11.88;;;;;;;;;;6213191;23;20000;-77
2022/01/19 08:47:43;;;;;;;24.90;11.18;;;;;;;;;;6235808;23;20016;-78
2022/01/19 08:50:14;;;;;;;35.58;12.05;;;;;;;;;;6228607;23;20312;-74
2022/01/19 08:52:45;;;;;;;30.52;11.88;;;;;;;;;;6228502;23;20016;-75
2022/01/19 08:55:17;;;;;;;38.75;16.13;;;;;;;;;;6256129;23;20000;-74
2022/01/19 08:57:46;;;;;;;44.97;18.98;;;;;;;;;;6232264;23;20064;-76
2022/01/19 09:00:15;;;;;;;36.35;16.50;;;;;;;;;;6253730;23;20078;-74
2022/01/19 09:02:43;;;;;;;41.92;17.10;;;;;;;;;;6253519;22;20022;-73
2022/01/19 09:05:10;;;;;;;33.08;14.50;;;;;;;;;;6228928;23;20027;-75
2022/01/19 09:07:36;;;;;;;34.90;14.60;;;;;;;;;;6229404;23;20011;-73
2022/01/19 09:10:09;;;;;;;34.67;15.55;;;;;;;;;;6252705;23;20011;-74
2022/01/19 09:12:44;;;;;;;33.55;16.23;;;;;;;;;;6258917;23;20008;-76
2022/01/19 09:15:17;;;;;;;40.55;16.85;;;;;;;;;;6196735;23;20051;-75
2022/01/19 09:18:11;;;;;;;38.75;16.10;;;;;;;;;;6193038;23;20015;-77
2022/01/19 09:20:45;;;;;;;57.72;31.45;;;;;;;;;;6192419;23;20017;-76
2022/01/19 09:23:28;;;;;;;34.22;16.60;;;;;;;;;;6193891;23;20002;-72
2022/01/19 09:25:55;;;;;;;33.63;16.85;;;;;;;;;;6168212;23;20089;-75
2022/01/19 09:28:21;;;;;;;33.10;16.33;;;;;;;;;;6169561;23;20003;-74
2022/01/19 09:31:10;;;;;;;36.33;16.35;;;;;;;;;;6201463;23;20001;-77
2022/01/19 09:33:38;;;;;;;37.72;14.57;;;;;;;;;;6195114;23;20023;-73
2022/01/19 09:36:18;;;;;;;42.92;15.85;;;;;;;;;;6190390;23;20001;-74
2022/01/19 09:38:51;;;;;;;32.13;14.10;;;;;;;;;;6194587;23;20009;-77
2022/01/19 09:41:24;;;;;;;31.80;13.55;;;;;;;;;;6188408;23;19985;-74
2022/01/19 09:43:50;;;;;;;37.05;14.57;;;;;;;;;;6188986;23;20001;-72
2022/01/19 09:46:20;;;;;;;34.58;16.10;;;;;;;;;;6223921;23;20008;-76
2022/01/19 09:48:59;;;;;;;36.88;14.40;;;;;;;;;;6180903;23;20064;-75
2022/01/19 09:51:26;;;;;;;31.33;13.95;;;;;;;;;;6257382;23;20008;-74
2022/01/19 09:53:52;;;;;;;31.50;12.70;;;;;;;;;;6256288;23;20454;-74
2022/01/19 09:56:21;;;;;;;38.50;15.95;;;;;;;;;;6258854;23;19997;-75
2022/01/19 09:58:48;;;;;;;27.88;11.80;;;;;;;;;;6258063;23;20007;-76
2022/01/19 10:01:21;;;;;;;35.00;12.98;;;;;;;;;;6256994;22;20003;-74
2022/01/19 10:03:47;;;;;;;36.07;15.13;;;;;;;;;;6256787;23;20027;-74
2022/01/19 10:06:14;;;;;;;32.40;12.60;;;;;;;;;;6253092;23;20236;-74
2022/01/19 10:08:54;;;;;;;31.92;12.43;;;;;;;;;;6252945;23;20000;-75
2022/01/19 10:17:01;;;;;;;26.60;8.77;;;;;;;;;;6251336;23;20012;-73
2022/01/19 10:19:57;;;;;;;21.33;8.93;;;;;;;;;;6253976;23;20008;-73
2022/01/19 10:22:38;;;;;;;32.58;11.52;;;;;;;;;;6232030;23;20030;-77
2022/01/19 10:25:06;;;;;;;31.67;11.20;;;;;;;;;;6230725;23;20011;-75
2022/01/19 10:27:34;;;;;;;26.50;9.65;;;;;;;;;;6226214;23;20000;-77
2022/01/19 10:30:06;;;;;;;34.17;12.10;;;;;;;;;;6226237;23;20462;-72
2022/01/19 10:32:46;;;;;;;27.50;12.13;;;;;;;;;;6253613;23;20008;-76
2022/01/19 10:35:19;;;;;;;28.88;12.07;;;;;;;;;;6253852;23;20005;-73
2022/01/19 10:37:46;;;;;;;28.10;11.33;;;;;;;;;;6254533;23;20000;-73
2022/01/19 10:40:37;;;;;;;25.60;11.13;;;;;;;;;;6258318;23;20194;-80
2022/01/19 10:45:41;;;;;;;28.92;9.02;;;;;;;;;;6238642;22;20024;-73
2022/01/19 10:48:08;;;;;;;24.25;9.85;;;;;;;;;;6256763;23;20009;-72
2022/01/19 10:50:34;;;;;;;25.50;9.00;;;;;;;;;;6260130;23;20004;-74
2022/01/19 10:53:01;;;;;;;24.20;9.93;;;;;;;;;;6252293;23;20040;-72
2022/01/19 10:55:44;;;;;;;24.83;10.70;;;;;;;;;;6249981;23;20004;-72
2022/01/19 10:58:11;;;;;;;51.40;23.02;;;;;;;;;;6249463;23;20012;-74
2022/01/19 11:00:40;;;;;;;70.75;33.15;;;;;;;;;;6255913;22;20027;-72
2022/01/19 11:03:20;;;;;;;30.15;11.18;;;;;;;;;;6284140;22;20033;-77
2022/01/19 11:05:53;;;;;;;21.25;8.63;;;;;;;;;;6250521;22;20024;-73
2022/01/19 11:08:21;;;;;;;23.60;8.32;;;;;;;;;;6245419;22;20000;-73
2022/01/19 11:10:49;;;;;;;21.52;8.20;;;;;;;;;;6246942;22;20018;-73
2022/01/19 11:13:25;;;;;;;24.42;7.32;;;;;;;;;;6269803;22;20000;-73
2022/01/19 11:15:59;;;;;;;29.20;8.65;;;;;;;;;;6240928;22;20011;-73
2022/01/19 11:18:29;;;;;;;23.58;8.75;;;;;;;;;;6227743;23;20008;-73
2022/01/19 11:20:57;;;;;;;22.45;7.40;;;;;;;;;;6256080;23;20000;-74
2022/01/19 11:23:44;;;;;;;28.08;8.02;;;;;;;;;;6205137;23;20012;-73
2022/01/19 11:26:13;;;;;;;24.85;9.23;;;;;;;;;;6228268;23;20536;-73
2022/01/19 11:28:44;;;;;;;28.15;10.05;;;;;;;;;;6252662;23;20080;-74
2022/01/19 11:31:34;;;;;;;25.33;10.50;;;;;;;;;;6228788;23;20000;-74
2022/01/19 11:34:21;;;;;;;29.25;11.23;;;;;;;;;;6229612;23;20043;-73
2022/01/19 11:37:00;;;;;;;22.30;8.75;;;;;;;;;;6169252;23;20005;-74
2022/01/19 11:39:35;;;;;;;31.63;11.60;;;;;;;;;;6143696;23;20028;-76
2022/01/19 11:42:05;;;;;;;31.08;11.63;;;;;;;;;;6139742;23;19998;-75
2022/01/19 11:44:31;;;;;;;27.58;10.50;;;;;;;;;;6147480;23;20005;-74
2022/01/19 11:47:01;;;;;;;34.70;9.23;;;;;;;;;;6167533;23;20006;-74
2022/01/19 11:49:50;;;;;;;26.52;9.30;;;;;;;;;;6138918;23;20013;-74
2022/01/19 11:52:19;;;;;;;28.20;8.68;;;;;;;;;;6139172;23;20009;-74
2022/01/19 11:54:48;;;;;;;27.55;8.15;;;;;;;;;;6163910;23;20002;-73
2022/01/19 11:57:16;;;;;;;31.33;8.07;;;;;;;;;;6167475;23;20005;-74
2022/01/19 11:59:48;;;;;;;25.92;9.18;;;;;;;;;;6140118;23;20117;-73
2022/01/19 12:02:36;;;;;;;24.63;7.97;;;;;;;;;;6185618;23;20103;-74
2022/01/19 12:05:09;;;;;;;25.85;8.15;;;;;;;;;;6162562;23;20012;-74
2022/01/19 12:07:48;;;;;;;28.80;8.30;;;;;;;;;;6158728;23;20036;-74
2022/01/19 12:10:22;;;;;;;40.72;10.18;;;;;;;;;;6136383;23;20013;-74
2022/01/19 12:13:30;;;;;;;18.92;7.65;;;;;;;;;;6137898;23;20009;-73
2022/01/19 12:16:19;;;;;;;21.05;7.53;;;;;;;;;;6075223;23;20013;-74
2022/01/19 12:18:49;;;;;;;23.17;7.70;;;;;;;;;;6073485;23;20003;-75
2022/01/19 12:21:16;;;;;;;31.17;7.88;;;;;;;;;;6072118;23;20039;-73
2022/01/19 12:23:44;;;;;;;20.00;8.05;;;;;;;;;;6077132;23;20010;-74
2022/01/19 12:26:15;;;;;;;26.20;8.18;;;;;;;;;;6077612;23;20077;-75
2022/01/19 12:28:45;;;;;;;25.65;8.65;;;;;;;;;;6049884;23;20010;-74
2022/01/19 12:31:34;;;;;;;23.80;9.75;;;;;;;;;;6047776;23;20070;-74
2022/01/19 12:34:16;;;;;;;25.88;8.73;;;;;;;;;;6071502;23;20041;-76
2022/01/19 12:36:56;;;;;;;20.17;8.15;;;;;;;;;;6119875;23;20006;-75
2022/01/19 12:39:25;;;;;;;23.70;8.07;;;;;;;;;;6133515;23;20006;-74
2022/01/19 12:44:53;;;;;;;23.35;8.35;;;;;;;;;;6218784;22;20114;-74
2022/01/19 12:47:39;;;;;;;24.90;8.85;;;;;;;;;;6246656;23;20072;-72
2022/01/19 12:50:08;;;;;;;25.52;8.32;;;;;;;;;;6225706;23;20054;-78
2022/01/19 13:00:24;;;;;;;25.05;9.20;;;;;;;;;;6238651;22;20028;-76
2022/01/19 13:02:52;;;;;;;28.30;10.55;;;;;;;;;;6281173;22;20045;-78
2022/01/19 13:05:21;;;;;;;27.05;9.65;;;;;;;;;;6285523;22;20333;-77
2022/01/19 13:07:54;;;;;;;42.65;25.45;;;;;;;;;;6285406;22;20074;-77
2022/01/19 13:10:29;;;;;;;31.98;16.45;;;;;;;;;;6284101;22;20094;-78
2022/01/19 13:13:05;;;;;;;32.38;11.75;;;;;;;;;;6284037;22;20046;-77
2022/01/19 13:15:42;;;;;;;25.30;12.15;;;;;;;;;;6278693;22;20049;-78
2022/01/19 13:18:08;;;;;;;23.60;9.30;;;;;;;;;;6279726;22;19996;-76
2022/01/19 13:20:35;;;;;;;29.05;9.77;;;;;;;;;;6288328;22;20008;-78
2022/01/19 13:23:04;;;;;;;40.85;10.80;;;;;;;;;;6284538;22;20022;-77
2022/01/19 13:25:31;;;;;;;25.25;9.25;;;;;;;;;;6278551;22;20010;-73
2022/01/19 13:27:58;;;;;;;25.48;8.80;;;;;;;;;;6275971;22;20007;-74
2022/01/19 13:30:27;;;;;;;23.88;9.82;;;;;;;;;;6277266;22;20413;-74
2022/01/19 13:32:54;;;;;;;33.45;9.90;;;;;;;;;;6277371;22;20015;-76
2022/01/19 13:35:21;;;;;;;27.55;9.43;;;;;;;;;;6287831;22;20062;-76
2022/01/19 13:37:58;;;;;;;21.15;9.20;;;;;;;;;;6279128;22;20030;-74
2022/01/19 13:40:31;;;;;;;23.60;9.80;;;;;;;;;;6280446;22;20008;-74
2022/01/19 13:43:04;;;;;;;27.45;10.02;;;;;;;;;;6279416;22;20023;-73
2022/01/19 13:50:45;;;;;;;22.17;9.48;;;;;;;;;;6296713;22;20042;-73
2022/01/19 13:53:15;;;;;;;30.13;8.98;;;;;;;;;;6285979;22;20008;-73
2022/01/19 13:55:43;;;;;;;37.78;11.65;;;;;;;;;;6283690;22;20045;-73
2022/01/19 13:58:13;;;;;;;33.58;9.23;;;;;;;;;;6281854;22;20083;-72
2022/01/19 14:00:52;;;;;;;24.85;10.88;;;;;;;;;;6283453;22;20012;-75
2022/01/19 14:03:18;;;;;;;23.45;10.90;;;;;;;;;;6284375;22;19999;-77
2022/01/19 14:05:47;;;;;;;25.10;10.32;;;;;;;;;;6311311;22;20003;-76
2022/01/19 14:08:14;;;;;;;24.60;10.38;;;;;;;;;;6311663;22;19995;-75
2022/01/19 14:10:46;;;;;;;28.55;10.48;;;;;;;;;;6284492;22;20016;-76
2022/01/19 14:13:25;;;;;;;24.08;10.73;;;;;;;;;;6290847;22;20007;-78
2022/01/19 14:15:52;;;;;;;21.05;9.63;;;;;;;;;;6311939;22;19996;-74
2022/01/19 14:18:18;;;;;;;24.65;9.45;;;;;;;;;;6320419;22;20010;-74
2022/01/19 14:20:44;;;;;;;27.35;10.88;;;;;;;;;;6313367;22;20341;-70
2022/01/19 14:23:15;;;;;;;25.85;8.80;;;;;;;;;;6321888;22;19995;-79
2022/01/19 15:00:11;;;;;;;30.35;11.60;;;;;;;;;;6192307;22;20028;-79
2022/01/19 15:03:05;;;;;;;28.40;11.50;;;;;;;;;;6332068;22;20017;-79
2022/01/19 15:05:40;;;;;;;33.03;14.10;;;;;;;;;;6325281;22;20011;-78
2022/01/19 15:08:10;;;;;;;38.85;16.48;;;;;;;;;;6301689;22;20341;-78
2022/01/19 15:10:37;;;;;;;44.40;19.83;;;;;;;;;;6299668;22;20053;-79
2022/01/19 15:13:27;;;;;;;60.22;25.90;;;;;;;;;;6301615;22;20007;-79
2022/01/19 15:16:13;;;;;;;58.80;28.45;;;;;;;;;;6299306;22;20007;-79
2022/01/19 15:18:40;;;;;;;44.08;20.00;;;;;;;;;;6298697;22;20006;-78
2022/01/19 15:24:18;;;;;;;41.33;20.70;;;;;;;;;;6330879;22;19991;-79
2022/01/19 15:27:09;;;;;;;48.20;22.73;;;;;;;;;;6224217;22;20090;-79
2022/01/19 15:29:52;;;;;;;50.08;22.08;;;;;;;;;;6322078;22;20002;-79
2022/01/19 15:32:21;;;;;;;53.53;26.48;;;;;;;;;;6299066;22;20014;-79
2022/01/19 15:34:50;;;;;;;45.90;20.98;;;;;;;;;;6297761;22;19991;-79
2022/01/19 15:37:22;;;;;;;42.47;17.90;;;;;;;;;;6302152;22;20012;-78
2022/01/19 15:39:52;;;;;;;38.47;19.13;;;;;;;;;;6263058;22;19999;-78
2022/01/19 15:42:23;;;;;;;45.05;19.88;;;;;;;;;;6293871;22;20015;-78
2022/01/19 15:45:15;;;;;;;41.85;17.58;;;;;;;;;;6121790;23;20020;-73
2022/01/19 15:47:49;;;;;;;43.33;16.83;;;;;;;;;;6174053;23;20001;-75
2022/01/19 15:50:15;;;;;;;32.80;15.45;;;;;;;;;;6137794;23;20010;-76
2022/01/19 15:52:43;;;;;;;46.22;20.23;;;;;;;;;;6134473;23;20013;-75
2022/01/19 15:55:10;;;;;;;38.72;21.73;;;;;;;;;;6135237;23;20020;-75
2022/01/19 15:57:37;;;;;;;43.20;19.98;;;;;;;;;;6159031;23;20099;-75
2022/01/19 16:00:05;;;;;;;39.42;17.23;;;;;;;;;;6135937;23;20016;-76
2022/01/19 16:02:32;;;;;;;36.97;15.77;;;;;;;;;;6137452;23;20028;-74
2022/01/19 16:04:58;;;;;;;35.88;15.65;;;;;;;;;;6162231;23;20010;-74
2022/01/19 16:07:27;;;;;;;33.63;14.88;;;;;;;;;;6137655;23;20081;-75
2022/01/19 16:09:53;;;;;;;35.40;15.38;;;;;;;;;;6134871;23;20077;-75
2022/01/19 16:12:21;;;;;;;37.70;17.02;;;;;;;;;;6158830;23;20080;-77
2022/01/19 16:14:47;;;;;;;39.13;16.42;;;;;;;;;;6132381;23;20021;-76
2022/01/19 16:17:15;;;;;;;38.90;15.50;;;;;;;;;;6161733;23;20006;-76
2022/01/19 16:19:41;;;;;;;40.92;15.35;;;;;;;;;;6157604;23;20014;-75
2022/01/19 16:22:15;;;;;;;32.13;14.25;;;;;;;;;;6207925;22;20006;-76
2022/01/19 16:27:28;;;;;;;38.30;18.17;;;;;;;;;;6311933;22;19944;-75
2022/01/19 16:29:54;;;;;;;39.75;16.45;;;;;;;;;;6282716;22;20000;-74
2022/01/19 16:32:39;;;;;;;32.17;15.60;;;;;;;;;;6321346;22;19999;-79
2022/01/19 16:45:29;;;;;;;35.35;15.00;;;;;;;;;;6220244;22;20027;-75
2022/01/19 16:47:59;;;;;;;44.20;17.17;;;;;;;;;;6250360;23;20003;-75
2022/01/19 16:50:26;;;;;;;40.75;18.50;;;;;;;;;;6249022;23;20090;-76
2022/01/19 16:52:52;;;;;;;47.05;21.00;;;;;;;;;;6248470;23;20142;-76
2022/01/19 16:55:23;;;;;;;55.28;24.17;;;;;;;;;;6248458;23;20004;-75
2022/01/19 16:57:49;;;;;;;59.53;28.88;;;;;;;;;;6249798;22;20003;-78
2022/01/19 17:00:15;;;;;;;142.65;61.95;;;;;;;;;;6276842;22;20000;-75
2022/01/19 17:02:42;;;;;;;57.67;23.45;;;;;;;;;;6279109;22;20011;-75
2022/01/19 17:05:13;;;;;;;36.30;17.85;;;;;;;;;;6283392;22;20041;-78
2022/01/19 17:07:43;;;;;;;45.17;19.45;;;;;;;;;;6292611;22;19999;-78
2022/01/19 17:10:21;;;;;;;40.92;17.73;;;;;;;;;;6323837;22;19999;-78
2022/01/19 17:12:57;;;;;;;34.67;17.83;;;;;;;;;;6317283;22;20097;-78
2022/01/19 17:18:21;;;;;;;33.15;13.90;;;;;;;;;;6220741;23;20046;-77
2022/01/19 17:20:48;;;;;;;28.17;11.85;;;;;;;;;;6195670;23;20001;-74
2022/01/19 17:23:16;;;;;;;30.13;13.43;;;;;;;;;;6192704;23;20004;-74
2022/01/19 17:25:42;;;;;;;33.38;14.88;;;;;;;;;;6191474;23;20032;-73
2022/01/19 17:28:11;;;;;;;42.22;16.70;;;;;;;;;;6217023;23;20019;-74
2022/01/19 17:30:38;;;;;;;41.45;18.35;;;;;;;;;;6196195;23;20001;-76
2022/01/19 17:33:07;;;;;;;46.67;19.52;;;;;;;;;;6193923;23;20008;-78
2022/01/19 17:35:35;;;;;;;45.88;20.63;;;;;;;;;;6225061;23;20000;-76
2022/01/19 17:38:04;;;;;;;31.00;12.82;;;;;;;;;;6219688;23;20008;-79
2022/01/19 17:40:30;;;;;;;46.70;24.13;;;;;;;;;;6194867;23;20090;-78
2022/01/19 17:42:59;;;;;;;43.70;18.42;;;;;;;;;;6188954;23;20012;-74